Davison Army Air Field Fort Belvoir US
ICAO: KDAA
IATA: DAA
Category: Medium
Scheduled Services: No

Elevation: 73 ft
TransAlt. 18000 ft.

Airport Communications:
POTOMAC APP:119.85
ATIS:128.175
CLNC DEL:24.52
CTAF:126.3
POTOMAC DEP:118.1
GND:121.9
ARNG OPS:52.75
BASE OPS:139.4
PMSV METRO:139.4
PTD:139.4
TWR:126.3

KDAA Zoom In..

Runways:

(A) RW 14 length 5619 ft width 75 ft
---- / hdg 142

(B) RW 32 length 5619 ft width 75 ft
ILS 108.90 / hdg 322

Location; KDAA
Day. 24 / Time. 12.56 Zulu
* Altimeter: 30.19
* Temperature: 23° c. 73.4°f.
* Wind from: 320° Speed 05 kn.
Dewpoint: 14° c.
Visibility: 10 Statute Miles.
Clouds: Clear (automated report).

KDAA 241256Z AUTO 32005KT 10SM CLR 23/14 A3019 RMK AO2 SLP226 T02300137 $


Wind From 320°
Speed 05 kn.

 
 
jpsmedia.com for Web Design SOUNDCLOUD worldairports.se 2018   terms of use